sensor_id;sensor_type;location;lat;lon;timestamp;temperature;humidity
45715;DHT22;31430;61.646;24.704;2023-03-08T00:01:48;-11.40;99.90
45715;DHT22;31430;61.646;24.704;2023-03-08T00:04:14;-11.40;99.90
45715;DHT22;31430;61.646;24.704;2023-03-08T00:06:40;-11.50;99.90
45715;DHT22;31430;61.646;24.704;2023-03-08T00:09:05;-11.50;99.90
45715;DHT22;31430;61.646;24.704;2023-03-08T00:11:31;-11.60;99.90
45715;DHT22;31430;61.646;24.704;2023-03-08T00:13:57;-11.70;99.90
45715;DHT22;31430;61.646;24.704;2023-03-08T00:16:23;-11.60;99.90
45715;DHT22;31430;61.646;24.704;2023-03-08T00:18:49;-11.70;99.90
45715;DHT22;31430;61.646;24.704;2023-03-08T00:21:16;-11.60;99.90
45715;DHT22;31430;61.646;24.704;2023-03-08T00:23:42;-11.70;99.90
45715;DHT22;31430;61.646;24.704;2023-03-08T00:26:09;-11.70;99.90
45715;DHT22;31430;61.646;24.704;2023-03-08T00:28:35;-11.70;99.90
45715;DHT22;31430;61.646;24.704;2023-03-08T00:31:03;-11.70;99.90
45715;DHT22;31430;61.646;24.704;2023-03-08T00:33:30;-11.70;99.90
45715;DHT22;31430;61.646;24.704;2023-03-08T00:36:17;-11.70;99.90
45715;DHT22;31430;61.646;24.704;2023-03-08T00:38:43;-11.60;99.90
45715;DHT22;31430;61.646;24.704;2023-03-08T00:41:10;-11.60;99.90
45715;DHT22;31430;61.646;24.704;2023-03-08T00:43:36;-11.60;99.90
45715;DHT22;31430;61.646;24.704;2023-03-08T00:46:02;-11.40;99.90
45715;DHT22;31430;61.646;24.704;2023-03-08T00:48:28;-11.30;99.90
45715;DHT22;31430;61.646;24.704;2023-03-08T00:50:54;-11.30;99.90
45715;DHT22;31430;61.646;24.704;2023-03-08T00:53:20;-11.20;99.90
45715;DHT22;31430;61.646;24.704;2023-03-08T00:55:53;-11.20;99.90
45715;DHT22;31430;61.646;24.704;2023-03-08T00:58:19;-11.20;99.90
45715;DHT22;31430;61.646;24.704;2023-03-08T01:00:46;-11.20;99.90
45715;DHT22;31430;61.646;24.704;2023-03-08T01:03:12;-11.20;99.90
45715;DHT22;31430;61.646;24.704;2023-03-08T01:05:43;-11.10;99.90
45715;DHT22;31430;61.646;24.704;2023-03-08T01:08:10;-11.10;99.90
45715;DHT22;31430;61.646;24.704;2023-03-08T01:10:36;-11.10;99.90
45715;DHT22;31430;61.646;24.704;2023-03-08T01:13:03;-11.10;99.90
45715;DHT22;31430;61.646;24.704;2023-03-08T01:15:30;-11.10;99.90
45715;DHT22;31430;61.646;24.704;2023-03-08T01:17:59;-11.10;99.90
45715;DHT22;31430;61.646;24.704;2023-03-08T01:20:24;-11.10;99.90
45715;DHT22;31430;61.646;24.704;2023-03-08T01:22:50;-11.10;99.90
45715;DHT22;31430;61.646;24.704;2023-03-08T01:25:16;-11.10;99.90
45715;DHT22;31430;61.646;24.704;2023-03-08T01:27:41;-11.10;99.90
45715;DHT22;31430;61.646;24.704;2023-03-08T01:30:08;-11.10;99.90
45715;DHT22;31430;61.646;24.704;2023-03-08T01:32:33;-11.10;99.90
45715;DHT22;31430;61.646;24.704;2023-03-08T01:34:59;-11.10;99.90
45715;DHT22;31430;61.646;24.704;2023-03-08T01:37:29;-11.10;99.90
45715;DHT22;31430;61.646;24.704;2023-03-08T01:39:56;-11.10;99.90
45715;DHT22;31430;61.646;24.704;2023-03-08T01:42:22;-11.10;99.90
45715;DHT22;31430;61.646;24.704;2023-03-08T01:47:51;-11.00;99.90
45715;DHT22;31430;61.646;24.704;2023-03-08T01:50:18;-10.90;99.90
45715;DHT22;31430;61.646;24.704;2023-03-08T01:52:47;-10.90;99.90
45715;DHT22;31430;61.646;24.704;2023-03-08T01:55:15;-11.00;99.90
45715;DHT22;31430;61.646;24.704;2023-03-08T01:57:50;-10.90;99.90
45715;DHT22;31430;61.646;24.704;2023-03-08T02:00:21;-10.90;99.90
45715;DHT22;31430;61.646;24.704;2023-03-08T02:02:59;-10.90;99.90
45715;DHT22;31430;61.646;24.704;2023-03-08T02:05:26;-10.90;99.90
45715;DHT22;31430;61.646;24.704;2023-03-08T02:07:52;-10.90;99.90
45715;DHT22;31430;61.646;24.704;2023-03-08T02:10:18;-10.90;99.90
45715;DHT22;31430;61.646;24.704;2023-03-08T02:12:44;-10.80;99.90
45715;DHT22;31430;61.646;24.704;2023-03-08T02:15:12;-10.80;99.90
45715;DHT22;31430;61.646;24.704;2023-03-08T02:17:40;-10.80;99.90
45715;DHT22;31430;61.646;24.704;2023-03-08T02:23:14;-10.70;99.90
45715;DHT22;31430;61.646;24.704;2023-03-08T02:25:51;-10.60;99.90
45715;DHT22;31430;61.646;24.704;2023-03-08T02:28:18;-10.70;99.90
45715;DHT22;31430;61.646;24.704;2023-03-08T02:30:44;-10.70;99.90
45715;DHT22;31430;61.646;24.704;2023-03-08T02:33:10;-10.70;99.90
45715;DHT22;31430;61.646;24.704;2023-03-08T02:35:36;-10.70;99.90
45715;DHT22;31430;61.646;24.704;2023-03-08T02:38:03;-10.70;99.90
45715;DHT22;31430;61.646;24.704;2023-03-08T02:40:29;-10.60;99.90
45715;DHT22;31430;61.646;24.704;2023-03-08T02:42:54;-10.60;99.90
45715;DHT22;31430;61.646;24.704;2023-03-08T02:45:21;-10.60;99.90
45715;DHT22;31430;61.646;24.704;2023-03-08T02:47:47;-10.60;99.90
45715;DHT22;31430;61.646;24.704;2023-03-08T02:50:13;-10.60;99.90
45715;DHT22;31430;61.646;24.704;2023-03-08T02:52:39;-10.60;99.90
45715;DHT22;31430;61.646;24.704;2023-03-08T02:55:05;-10.60;99.90
45715;DHT22;31430;61.646;24.704;2023-03-08T02:57:31;-10.60;99.90
45715;DHT22;31430;61.646;24.704;2023-03-08T02:59:57;-10.60;99.90
45715;DHT22;31430;61.646;24.704;2023-03-08T03:02:22;-10.60;99.90
45715;DHT22;31430;61.646;24.704;2023-03-08T03:04:48;-10.50;99.90
45715;DHT22;31430;61.646;24.704;2023-03-08T03:07:14;-10.50;99.90
45715;DHT22;31430;61.646;24.704;2023-03-08T03:09:39;-10.50;99.90
45715;DHT22;31430;61.646;24.704;2023-03-08T03:12:05;-10.50;99.90
45715;DHT22;31430;61.646;24.704;2023-03-08T03:14:31;-10.50;99.90
45715;DHT22;31430;61.646;24.704;2023-03-08T03:16:57;-10.50;99.90
45715;DHT22;31430;61.646;24.704;2023-03-08T03:19:23;-10.30;99.90
45715;DHT22;31430;61.646;24.704;2023-03-08T03:21:49;-10.30;99.90
45715;DHT22;31430;61.646;24.704;2023-03-08T03:24:15;-10.30;99.90
45715;DHT22;31430;61.646;24.704;2023-03-08T03:26:41;-10.30;99.90
45715;DHT22;31430;61.646;24.704;2023-03-08T03:29:07;-10.30;99.90
45715;DHT22;31430;61.646;24.704;2023-03-08T03:31:32;-10.20;99.90
45715;DHT22;31430;61.646;24.704;2023-03-08T03:33:58;-10.20;99.90
45715;DHT22;31430;61.646;24.704;2023-03-08T03:36:24;-10.30;99.90
45715;DHT22;31430;61.646;24.704;2023-03-08T03:38:50;-10.30;99.90
45715;DHT22;31430;61.646;24.704;2023-03-08T03:41:18;-10.40;99.90
45715;DHT22;31430;61.646;24.704;2023-03-08T03:43:44;-10.40;99.90
45715;DHT22;31430;61.646;24.704;2023-03-08T03:46:12;-10.40;99.90
45715;DHT22;31430;61.646;24.704;2023-03-08T03:48:38;-10.40;99.90
45715;DHT22;31430;61.646;24.704;2023-03-08T03:51:10;-10.40;99.90
45715;DHT22;31430;61.646;24.704;2023-03-08T03:53:36;-10.40;99.90
45715;DHT22;31430;61.646;24.704;2023-03-08T03:56:24;-10.50;99.90
45715;DHT22;31430;61.646;24.704;2023-03-08T03:58:53;-10.50;99.90
45715;DHT22;31430;61.646;24.704;2023-03-08T04:01:22;-10.40;99.90
45715;DHT22;31430;61.646;24.704;2023-03-08T04:03:52;-10.50;99.90
45715;DHT22;31430;61.646;24.704;2023-03-08T04:06:23;-10.40;99.90
45715;DHT22;31430;61.646;24.704;2023-03-08T04:08:52;-10.50;99.90
45715;DHT22;31430;61.646;24.704;2023-03-08T04:11:20;-10.40;99.90
45715;DHT22;31430;61.646;24.704;2023-03-08T04:13:46;-10.40;99.90
45715;DHT22;31430;61.646;24.704;2023-03-08T04:18:40;-10.40;99.90
45715;DHT22;31430;61.646;24.704;2023-03-08T04:21:06;-10.40;99.90
45715;DHT22;31430;61.646;24.704;2023-03-08T04:23:32;-10.40;99.90
45715;DHT22;31430;61.646;24.704;2023-03-08T04:25:59;-10.50;99.90
45715;DHT22;31430;61.646;24.704;2023-03-08T04:28:25;-10.40;99.90
45715;DHT22;31430;61.646;24.704;2023-03-08T04:30:51;-10.50;99.90
45715;DHT22;31430;61.646;24.704;2023-03-08T04:33:16;-10.50;99.90
45715;DHT22;31430;61.646;24.704;2023-03-08T04:35:42;-10.60;99.90
45715;DHT22;31430;61.646;24.704;2023-03-08T04:38:08;-10.70;99.90
45715;DHT22;31430;61.646;24.704;2023-03-08T04:40:34;-10.70;99.90
45715;DHT22;31430;61.646;24.704;2023-03-08T04:43:19;-10.60;99.90
45715;DHT22;31430;61.646;24.704;2023-03-08T04:45:45;-10.70;99.90
45715;DHT22;31430;61.646;24.704;2023-03-08T04:48:11;-10.70;99.90
45715;DHT22;31430;61.646;24.704;2023-03-08T04:50:37;-10.70;99.90
45715;DHT22;31430;61.646;24.704;2023-03-08T04:53:04;-10.70;99.90
45715;DHT22;31430;61.646;24.704;2023-03-08T04:55:29;-10.60;99.90
45715;DHT22;31430;61.646;24.704;2023-03-08T04:57:55;-10.60;99.90
45715;DHT22;31430;61.646;24.704;2023-03-08T05:00:21;-10.60;99.90
45715;DHT22;31430;61.646;24.704;2023-03-08T05:02:47;-10.70;99.90
45715;DHT22;31430;61.646;24.704;2023-03-08T05:05:13;-10.60;99.90
45715;DHT22;31430;61.646;24.704;2023-03-08T05:07:38;-10.60;99.90
45715;DHT22;31430;61.646;24.704;2023-03-08T05:10:04;-10.60;99.90
45715;DHT22;31430;61.646;24.704;2023-03-08T05:12:30;-10.60;99.90
45715;DHT22;31430;61.646;24.704;2023-03-08T05:14:56;-10.60;99.90
45715;DHT22;31430;61.646;24.704;2023-03-08T05:17:22;-10.50;99.90
45715;DHT22;31430;61.646;24.704;2023-03-08T05:19:48;-10.50;99.90
45715;DHT22;31430;61.646;24.704;2023-03-08T05:22:13;-10.50;99.90
45715;DHT22;31430;61.646;24.704;2023-03-08T05:24:39;-10.50;99.90
45715;DHT22;31430;61.646;24.704;2023-03-08T05:27:06;-10.40;99.90
45715;DHT22;31430;61.646;24.704;2023-03-08T05:29:33;-10.50;99.90
45715;DHT22;31430;61.646;24.704;2023-03-08T05:32:00;-10.40;99.90
45715;DHT22;31430;61.646;24.704;2023-03-08T05:34:27;-10.50;99.90
45715;DHT22;31430;61.646;24.704;2023-03-08T05:36:53;-10.40;99.90
45715;DHT22;31430;61.646;24.704;2023-03-08T05:39:19;-10.40;99.90
45715;DHT22;31430;61.646;24.704;2023-03-08T05:41:45;-10.40;99.90
45715;DHT22;31430;61.646;24.704;2023-03-08T05:44:10;-10.40;99.90
45715;DHT22;31430;61.646;24.704;2023-03-08T05:46:36;-10.50;99.90
45715;DHT22;31430;61.646;24.704;2023-03-08T05:49:04;-10.50;99.90
45715;DHT22;31430;61.646;24.704;2023-03-08T05:51:29;-10.40;99.90
45715;DHT22;31430;61.646;24.704;2023-03-08T05:53:55;-10.40;99.90
45715;DHT22;31430;61.646;24.704;2023-03-08T05:56:22;-10.50;99.90
45715;DHT22;31430;61.646;24.704;2023-03-08T05:58:49;-10.50;99.90
45715;DHT22;31430;61.646;24.704;2023-03-08T06:01:20;-10.50;99.90
45715;DHT22;31430;61.646;24.704;2023-03-08T06:03:48;-10.40;99.90
45715;DHT22;31430;61.646;24.704;2023-03-08T06:06:15;-10.30;99.90
45715;DHT22;31430;61.646;24.704;2023-03-08T06:08:41;-10.20;99.90
45715;DHT22;31430;61.646;24.704;2023-03-08T06:11:07;-10.30;99.90
45715;DHT22;31430;61.646;24.704;2023-03-08T06:13:33;-10.20;99.90
45715;DHT22;31430;61.646;24.704;2023-03-08T06:15:59;-10.20;99.90
45715;DHT22;31430;61.646;24.704;2023-03-08T06:18:26;-10.20;99.90
45715;DHT22;31430;61.646;24.704;2023-03-08T06:21:04;-10.00;99.90
45715;DHT22;31430;61.646;24.704;2023-03-08T06:23:31;-9.90;99.90
45715;DHT22;31430;61.646;24.704;2023-03-08T06:25:57;-9.90;99.90
45715;DHT22;31430;61.646;24.704;2023-03-08T06:28:24;-9.80;99.90
45715;DHT22;31430;61.646;24.704;2023-03-08T06:30:50;-9.80;99.90
45715;DHT22;31430;61.646;24.704;2023-03-08T06:33:17;-10.00;99.90
45715;DHT22;31430;61.646;24.704;2023-03-08T06:35:58;-9.80;99.90
45715;DHT22;31430;61.646;24.704;2023-03-08T06:38:24;-9.60;99.90
45715;DHT22;31430;61.646;24.704;2023-03-08T06:40:50;-9.70;99.90
45715;DHT22;31430;61.646;24.704;2023-03-08T06:43:16;-9.70;99.90
45715;DHT22;31430;61.646;24.704;2023-03-08T06:45:42;-9.50;99.90
45715;DHT22;31430;61.646;24.704;2023-03-08T06:48:08;-9.50;99.90
45715;DHT22;31430;61.646;24.704;2023-03-08T06:50:34;-9.30;99.90
45715;DHT22;31430;61.646;24.704;2023-03-08T06:53:00;-9.40;99.90
45715;DHT22;31430;61.646;24.704;2023-03-08T06:55:26;-9.30;99.90
45715;DHT22;31430;61.646;24.704;2023-03-08T06:57:52;-9.20;99.90
45715;DHT22;31430;61.646;24.704;2023-03-08T07:00:20;-9.00;99.90
45715;DHT22;31430;61.646;24.704;2023-03-08T07:02:47;-9.10;99.90
45715;DHT22;31430;61.646;24.704;2023-03-08T07:05:14;-9.10;99.90
45715;DHT22;31430;61.646;24.704;2023-03-08T07:07:41;-9.00;99.90
45715;DHT22;31430;61.646;24.704;2023-03-08T07:10:08;-8.90;99.90
45715;DHT22;31430;61.646;24.704;2023-03-08T07:12:35;-8.80;99.90
45715;DHT22;31430;61.646;24.704;2023-03-08T07:15:06;-8.90;99.90
45715;DHT22;31430;61.646;24.704;2023-03-08T07:17:32;-8.80;99.90
45715;DHT22;31430;61.646;24.704;2023-03-08T07:19:59;-8.70;99.90
45715;DHT22;31430;61.646;24.704;2023-03-08T07:22:25;-8.60;99.90
45715;DHT22;31430;61.646;24.704;2023-03-08T07:24:51;-8.60;99.90
45715;DHT22;31430;61.646;24.704;2023-03-08T07:27:17;-8.60;99.90
45715;DHT22;31430;61.646;24.704;2023-03-08T07:29:42;-8.60;99.90
45715;DHT22;31430;61.646;24.704;2023-03-08T07:32:08;-8.40;99.90
45715;DHT22;31430;61.646;24.704;2023-03-08T07:34:34;-8.30;99.90
45715;DHT22;31430;61.646;24.704;2023-03-08T07:37:00;-8.40;99.90
45715;DHT22;31430;61.646;24.704;2023-03-08T07:39:25;-8.50;99.90
45715;DHT22;31430;61.646;24.704;2023-03-08T07:41:51;-8.30;99.90
45715;DHT22;31430;61.646;24.704;2023-03-08T07:44:17;-8.00;99.90
45715;DHT22;31430;61.646;24.704;2023-03-08T07:46:42;-8.10;99.90
45715;DHT22;31430;61.646;24.704;2023-03-08T07:49:10;-8.10;99.90
45715;DHT22;31430;61.646;24.704;2023-03-08T07:51:36;-8.20;99.90
45715;DHT22;31430;61.646;24.704;2023-03-08T07:54:02;-8.10;99.90
45715;DHT22;31430;61.646;24.704;2023-03-08T07:56:28;-8.00;99.90
45715;DHT22;31430;61.646;24.704;2023-03-08T07:58:57;-8.00;99.90
45715;DHT22;31430;61.646;24.704;2023-03-08T08:01:23;-8.00;99.90
45715;DHT22;31430;61.646;24.704;2023-03-08T08:03:49;-7.90;99.90
45715;DHT22;31430;61.646;24.704;2023-03-08T08:06:15;-7.60;99.90
45715;DHT22;31430;61.646;24.704;2023-03-08T08:08:41;-7.60;99.90
45715;DHT22;31430;61.646;24.704;2023-03-08T08:11:11;-7.60;99.90
45715;DHT22;31430;61.646;24.704;2023-03-08T08:13:37;-7.50;99.90
45715;DHT22;31430;61.646;24.704;2023-03-08T08:16:03;-7.30;99.90
45715;DHT22;31430;61.646;24.704;2023-03-08T08:18:28;-7.30;99.90
45715;DHT22;31430;61.646;24.704;2023-03-08T08:21:06;-7.20;99.90
45715;DHT22;31430;61.646;24.704;2023-03-08T08:23:33;-7.10;99.90
45715;DHT22;31430;61.646;24.704;2023-03-08T08:25:59;-6.80;99.90
45715;DHT22;31430;61.646;24.704;2023-03-08T08:28:26;-6.80;99.90
45715;DHT22;31430;61.646;24.704;2023-03-08T08:30:59;-6.70;99.90
45715;DHT22;31430;61.646;24.704;2023-03-08T08:33:26;-6.60;99.90
45715;DHT22;31430;61.646;24.704;2023-03-08T08:35:52;-6.80;99.90
45715;DHT22;31430;61.646;24.704;2023-03-08T08:38:18;-6.50;99.90
45715;DHT22;31430;61.646;24.704;2023-03-08T08:40:43;-6.40;99.90
45715;DHT22;31430;61.646;24.704;2023-03-08T08:43:09;-6.30;99.90
45715;DHT22;31430;61.646;24.704;2023-03-08T08:45:35;-6.30;99.90
45715;DHT22;31430;61.646;24.704;2023-03-08T08:48:00;-6.30;99.90
45715;DHT22;31430;61.646;24.704;2023-03-08T08:50:26;-6.50;99.90
45715;DHT22;31430;61.646;24.704;2023-03-08T08:52:52;-6.40;99.90
45715;DHT22;31430;61.646;24.704;2023-03-08T08:55:17;-6.40;99.90
45715;DHT22;31430;61.646;24.704;2023-03-08T08:57:43;-6.10;99.90
45715;DHT22;31430;61.646;24.704;2023-03-08T09:00:09;-6.30;99.90
45715;DHT22;31430;61.646;24.704;2023-03-08T09:02:35;-6.20;99.90
45715;DHT22;31430;61.646;24.704;2023-03-08T09:05:01;-6.20;99.90
45715;DHT22;31430;61.646;24.704;2023-03-08T09:07:27;-6.30;99.90
45715;DHT22;31430;61.646;24.704;2023-03-08T09:09:53;-6.20;99.90
45715;DHT22;31430;61.646;24.704;2023-03-08T09:12:19;-6.30;99.90
45715;DHT22;31430;61.646;24.704;2023-03-08T09:14:57;-6.30;99.90
45715;DHT22;31430;61.646;24.704;2023-03-08T09:17:23;-6.30;99.90
45715;DHT22;31430;61.646;24.704;2023-03-08T09:19:49;-6.40;99.90
45715;DHT22;31430;61.646;24.704;2023-03-08T09:22:16;-6.30;99.90
45715;DHT22;31430;61.646;24.704;2023-03-08T09:24:41;-6.50;99.90
45715;DHT22;31430;61.646;24.704;2023-03-08T09:27:07;-6.30;99.90
45715;DHT22;31430;61.646;24.704;2023-03-08T09:29:33;-6.20;99.90
45715;DHT22;31430;61.646;24.704;2023-03-08T09:31:59;-6.10;99.90
45715;DHT22;31430;61.646;24.704;2023-03-08T09:34:25;-6.10;99.90
45715;DHT22;31430;61.646;24.704;2023-03-08T09:36:51;-6.10;99.90
45715;DHT22;31430;61.646;24.704;2023-03-08T09:39:17;-5.80;99.90
45715;DHT22;31430;61.646;24.704;2023-03-08T09:41:55;-5.60;99.90
45715;DHT22;31430;61.646;24.704;2023-03-08T09:53:29;-5.80;99.90
45715;DHT22;31430;61.646;24.704;2023-03-08T09:55:58;-5.60;99.90
45715;DHT22;31430;61.646;24.704;2023-03-08T09:58:53;-5.50;98.50
45715;DHT22;31430;61.646;24.704;2023-03-08T10:06:46;-5.40;97.60
45715;DHT22;31430;61.646;24.704;2023-03-08T10:15:00;-5.40;96.50
45715;DHT22;31430;61.646;24.704;2023-03-08T10:17:41;-5.70;99.90
45715;DHT22;31430;61.646;24.704;2023-03-08T10:22:45;-5.40;99.70
45715;DHT22;31430;61.646;24.704;2023-03-08T10:25:30;-5.00;96.40
45715;DHT22;31430;61.646;24.704;2023-03-08T10:28:00;-5.00;96.60
45715;DHT22;31430;61.646;24.704;2023-03-08T10:30:39;-5.00;97.00
45715;DHT22;31430;61.646;24.704;2023-03-08T10:33:10;-4.70;94.90
45715;DHT22;31430;61.646;24.704;2023-03-08T10:35:59;-4.60;94.00
45715;DHT22;31430;61.646;24.704;2023-03-08T10:38:28;-4.50;94.10
45715;DHT22;31430;61.646;24.704;2023-03-08T10:41:14;-4.80;94.90
45715;DHT22;31430;61.646;24.704;2023-03-08T10:43:49;-4.50;96.20
45715;DHT22;31430;61.646;24.704;2023-03-08T10:46:20;-4.20;93.90
45715;DHT22;31430;61.646;24.704;2023-03-08T10:48:46;-4.10;92.30
45715;DHT22;31430;61.646;24.704;2023-03-08T10:53:58;-4.40;93.80
45715;DHT22;31430;61.646;24.704;2023-03-08T10:56:39;-4.50;94.60
45715;DHT22;31430;61.646;24.704;2023-03-08T10:59:20;-4.40;94.50
45715;DHT22;31430;61.646;24.704;2023-03-08T11:01:53;-4.20;95.90
45715;DHT22;31430;61.646;24.704;2023-03-08T11:04:25;-4.20;95.70
45715;DHT22;31430;61.646;24.704;2023-03-08T11:06:52;-4.30;93.50
45715;DHT22;31430;61.646;24.704;2023-03-08T11:09:20;-4.30;93.90
45715;DHT22;31430;61.646;24.704;2023-03-08T11:11:46;-4.30;94.50
45715;DHT22;31430;61.646;24.704;2023-03-08T11:14:11;-4.10;92.40
45715;DHT22;31430;61.646;24.704;2023-03-08T11:16:42;-4.40;92.90
45715;DHT22;31430;61.646;24.704;2023-03-08T11:22:32;-3.80;92.00
45715;DHT22;31430;61.646;24.704;2023-03-08T11:28:25;-4.00;92.60
45715;DHT22;31430;61.646;24.704;2023-03-08T11:36:26;-4.10;91.30
45715;DHT22;31430;61.646;24.704;2023-03-08T11:38:58;-4.30;93.50
45715;DHT22;31430;61.646;24.704;2023-03-08T11:41:41;-4.20;93.00
45715;DHT22;31430;61.646;24.704;2023-03-08T11:57:02;-4.00;92.20
45715;DHT22;31430;61.646;24.704;2023-03-08T11:59:50;-4.40;92.50
45715;DHT22;31430;61.646;24.704;2023-03-08T12:02:26;-4.50;92.90
45715;DHT22;31430;61.646;24.704;2023-03-08T12:05:42;-4.50;92.90
45715;DHT22;31430;61.646;24.704;2023-03-08T12:07:57;-4.70;93.70
45715;DHT22;31430;61.646;24.704;2023-03-08T12:10:33;-4.60;93.20
45715;DHT22;31430;61.646;24.704;2023-03-08T12:13:32;-4.60;92.40
45715;DHT22;31430;61.646;24.704;2023-03-08T12:24:37;-4.30;92.60
45715;DHT22;31430;61.646;24.704;2023-03-08T12:27:31;-4.50;92.00
45715;DHT22;31430;61.646;24.704;2023-03-08T12:32:46;-4.50;91.60
45715;DHT22;31430;61.646;24.704;2023-03-08T12:53:45;-4.30;90.40
45715;DHT22;31430;61.646;24.704;2023-03-08T13:04:27;-4.10;88.40
45715;DHT22;31430;61.646;24.704;2023-03-08T13:14:46;-4.20;88.10
45715;DHT22;31430;61.646;24.704;2023-03-08T13:19:58;-4.20;86.60
45715;DHT22;31430;61.646;24.704;2023-03-08T13:30:37;-5.00;89.90
45715;DHT22;31430;61.646;24.704;2023-03-08T13:33:17;-4.80;90.10
45715;DHT22;31430;61.646;24.704;2023-03-08T13:35:56;-4.70;89.80
45715;DHT22;31430;61.646;24.704;2023-03-08T13:38:23;-4.70;89.10
45715;DHT22;31430;61.646;24.704;2023-03-08T13:40:51;-4.90;90.00
45715;DHT22;31430;61.646;24.704;2023-03-08T13:43:16;-4.70;87.60
45715;DHT22;31430;61.646;24.704;2023-03-08T13:45:46;-4.90;89.30
45715;DHT22;31430;61.646;24.704;2023-03-08T13:48:13;-4.80;89.50
45715;DHT22;31430;61.646;24.704;2023-03-08T13:50:44;-4.80;90.10
45715;DHT22;31430;61.646;24.704;2023-03-08T13:53:25;-5.20;91.10
45715;DHT22;31430;61.646;24.704;2023-03-08T13:55:53;-5.00;90.60
45715;DHT22;31430;61.646;24.704;2023-03-08T13:58:34;-4.60;87.90
45715;DHT22;31430;61.646;24.704;2023-03-08T14:03:39;-4.80;88.20
45715;DHT22;31430;61.646;24.704;2023-03-08T14:06:18;-4.90;87.00
45715;DHT22;31430;61.646;24.704;2023-03-08T14:08:46;-5.00;87.20
45715;DHT22;31430;61.646;24.704;2023-03-08T14:11:21;-5.20;88.80
45715;DHT22;31430;61.646;24.704;2023-03-08T14:13:50;-4.90;88.60
45715;DHT22;31430;61.646;24.704;2023-03-08T14:16:32;-4.90;86.80
45715;DHT22;31430;61.646;24.704;2023-03-08T14:19:07;-4.90;86.90
45715;DHT22;31430;61.646;24.704;2023-03-08T14:21:34;-5.20;87.70
45715;DHT22;31430;61.646;24.704;2023-03-08T14:24:01;-5.00;86.80
45715;DHT22;31430;61.646;24.704;2023-03-08T14:26:34;-5.00;87.30
45715;DHT22;31430;61.646;24.704;2023-03-08T14:29:19;-4.90;86.00
45715;DHT22;31430;61.646;24.704;2023-03-08T14:34:35;-4.90;84.90
45715;DHT22;31430;61.646;24.704;2023-03-08T14:37:17;-5.00;86.20
45715;DHT22;31430;61.646;24.704;2023-03-08T14:39:46;-5.10;87.00
45715;DHT22;31430;61.646;24.704;2023-03-08T14:47:23;-5.40;89.80
45715;DHT22;31430;61.646;24.704;2023-03-08T14:52:35;-5.40;87.70
45715;DHT22;31430;61.646;24.704;2023-03-08T14:55:02;-5.50;88.80
45715;DHT22;31430;61.646;24.704;2023-03-08T14:57:29;-5.40;87.60
45715;DHT22;31430;61.646;24.704;2023-03-08T15:00:06;-5.40;87.10
45715;DHT22;31430;61.646;24.704;2023-03-08T15:02:34;-5.60;86.80
45715;DHT22;31430;61.646;24.704;2023-03-08T15:05:00;-5.80;88.90
45715;DHT22;31430;61.646;24.704;2023-03-08T15:07:31;-6.00;89.90
45715;DHT22;31430;61.646;24.704;2023-03-08T15:10:00;-6.00;88.80
45715;DHT22;31430;61.646;24.704;2023-03-08T15:12:29;-6.00;86.40
45715;DHT22;31430;61.646;24.704;2023-03-08T15:14:55;-6.00;87.10
45715;DHT22;31430;61.646;24.704;2023-03-08T15:17:21;-6.10;86.50
45715;DHT22;31430;61.646;24.704;2023-03-08T15:19:47;-6.20;86.80
45715;DHT22;31430;61.646;24.704;2023-03-08T15:22:13;-6.40;86.90
45715;DHT22;31430;61.646;24.704;2023-03-08T15:24:40;-6.50;87.50
45715;DHT22;31430;61.646;24.704;2023-03-08T15:27:05;-6.60;89.20
45715;DHT22;31430;61.646;24.704;2023-03-08T15:29:33;-6.70;88.70
45715;DHT22;31430;61.646;24.704;2023-03-08T15:32:01;-6.80;89.50
45715;DHT22;31430;61.646;24.704;2023-03-08T15:34:27;-6.90;89.00
45715;DHT22;31430;61.646;24.704;2023-03-08T15:36:53;-6.90;88.40
45715;DHT22;31430;61.646;24.704;2023-03-08T15:39:19;-7.00;88.40
45715;DHT22;31430;61.646;24.704;2023-03-08T15:41:46;-7.00;87.00
45715;DHT22;31430;61.646;24.704;2023-03-08T15:44:12;-7.00;87.10
45715;DHT22;31430;61.646;24.704;2023-03-08T15:46:38;-7.10;87.50
45715;DHT22;31430;61.646;24.704;2023-03-08T15:49:04;-7.10;87.30
45715;DHT22;31430;61.646;24.704;2023-03-08T15:51:33;-7.30;89.50
45715;DHT22;31430;61.646;24.704;2023-03-08T15:53:59;-7.30;89.30
45715;DHT22;31430;61.646;24.704;2023-03-08T15:56:24;-7.40;89.50
45715;DHT22;31430;61.646;24.704;2023-03-08T15:58:54;-7.50;89.60
45715;DHT22;31430;61.646;24.704;2023-03-08T16:01:21;-7.60;89.20
45715;DHT22;31430;61.646;24.704;2023-03-08T16:03:51;-7.60;89.00
45715;DHT22;31430;61.646;24.704;2023-03-08T16:06:18;-7.70;89.90
45715;DHT22;31430;61.646;24.704;2023-03-08T16:08:44;-7.90;90.50
45715;DHT22;31430;61.646;24.704;2023-03-08T16:11:13;-7.90;90.50
45715;DHT22;31430;61.646;24.704;2023-03-08T16:13:39;-7.90;90.70
45715;DHT22;31430;61.646;24.704;2023-03-08T16:16:06;-8.00;90.50
45715;DHT22;31430;61.646;24.704;2023-03-08T16:18:33;-8.00;90.90
45715;DHT22;31430;61.646;24.704;2023-03-08T16:21:00;-8.00;90.40
45715;DHT22;31430;61.646;24.704;2023-03-08T16:23:25;-8.10;90.80
45715;DHT22;31430;61.646;24.704;2023-03-08T16:26:03;-8.10;90.60
45715;DHT22;31430;61.646;24.704;2023-03-08T16:28:29;-8.10;90.30
45715;DHT22;31430;61.646;24.704;2023-03-08T16:30:56;-8.30;90.70
45715;DHT22;31430;61.646;24.704;2023-03-08T16:33:22;-8.40;90.90
45715;DHT22;31430;61.646;24.704;2023-03-08T16:35:49;-8.50;90.90
45715;DHT22;31430;61.646;24.704;2023-03-08T16:38:15;-8.50;91.00
45715;DHT22;31430;61.646;24.704;2023-03-08T16:40:41;-8.60;91.20
45715;DHT22;31430;61.646;24.704;2023-03-08T16:43:07;-8.60;91.00
45715;DHT22;31430;61.646;24.704;2023-03-08T16:45:34;-8.60;90.80
45715;DHT22;31430;61.646;24.704;2023-03-08T16:47:59;-8.70;90.90
45715;DHT22;31430;61.646;24.704;2023-03-08T16:50:25;-8.70;91.00
45715;DHT22;31430;61.646;24.704;2023-03-08T16:52:55;-8.80;91.80
45715;DHT22;31430;61.646;24.704;2023-03-08T16:55:22;-8.80;91.20
45715;DHT22;31430;61.646;24.704;2023-03-08T16:57:48;-8.80;90.90
45715;DHT22;31430;61.646;24.704;2023-03-08T17:00:14;-8.90;90.50
45715;DHT22;31430;61.646;24.704;2023-03-08T17:02:40;-8.80;90.10
45715;DHT22;31430;61.646;24.704;2023-03-08T17:05:06;-8.90;90.10
45715;DHT22;31430;61.646;24.704;2023-03-08T17:07:37;-9.00;90.50
45715;DHT22;31430;61.646;24.704;2023-03-08T17:10:04;-9.10;89.10
45715;DHT22;31430;61.646;24.704;2023-03-08T17:12:30;-9.10;89.20
45715;DHT22;31430;61.646;24.704;2023-03-08T17:14:56;-9.20;88.40
45715;DHT22;31430;61.646;24.704;2023-03-08T17:17:21;-9.20;88.50
45715;DHT22;31430;61.646;24.704;2023-03-08T17:19:51;-9.10;87.40
45715;DHT22;31430;61.646;24.704;2023-03-08T17:22:17;-9.20;87.60
45715;DHT22;31430;61.646;24.704;2023-03-08T17:24:43;-9.30;87.80
45715;DHT22;31430;61.646;24.704;2023-03-08T17:27:08;-9.40;88.40